createdAt,value
2019-01-21T00:00:35.669Z,32.83
2019-01-21T00:02:37.057Z,34.27
2019-01-21T00:04:38.496Z,39.65
2019-01-21T00:06:39.927Z,39.92
2019-01-21T00:08:41.283Z,39.38
2019-01-21T00:10:42.678Z,39.45
2019-01-21T00:12:44.093Z,36.70
2019-01-21T00:14:45.617Z,40.33
2019-01-21T00:16:47.063Z,42.17
2019-01-21T00:18:48.432Z,37.30
2019-01-21T00:20:49.989Z,41.35
2019-01-21T00:22:51.429Z,34.63
2019-01-21T00:24:52.791Z,40.35
2019-01-21T00:26:54.301Z,37.63
2019-01-21T00:28:55.728Z,33.20
2019-01-21T00:30:57.112Z,37.45
2019-01-21T00:32:58.535Z,39.23
2019-01-21T00:34:59.920Z,56.40
2019-01-21T00:37:03.527Z,46.10
2019-01-21T00:39:05.390Z,54.50
2019-01-21T00:41:06.743Z,44.40
2019-01-21T00:43:08.133Z,40.55
2019-01-21T00:45:09.637Z,42.17
2019-01-21T00:47:11.004Z,42.90
2019-01-21T00:49:12.386Z,45.83
2019-01-21T00:51:13.840Z,44.63
2019-01-21T00:53:15.223Z,43.30
2019-01-21T00:55:16.573Z,53.48
2019-01-21T00:57:18.015Z,51.90
2019-01-21T00:59:19.376Z,47.50
2019-01-21T01:01:20.806Z,43.80
2019-01-21T01:03:22.249Z,44.30
2019-01-21T01:05:23.829Z,49.38
2019-01-21T01:07:25.209Z,45.38
2019-01-21T01:09:26.621Z,40.20
2019-01-21T01:11:28.057Z,45.48
2019-01-21T01:13:29.444Z,47.78
2019-01-21T01:15:30.813Z,45.17
2019-01-21T01:17:37.081Z,46.68
2019-01-21T01:19:35.520Z,46.18
2019-01-21T01:21:36.890Z,46.63
2019-01-21T01:23:38.442Z,41.08
2019-01-21T01:25:39.808Z,43.98
2019-01-21T01:27:41.191Z,46.13
2019-01-21T01:29:42.630Z,42.17
2019-01-21T01:31:44.010Z,46.80
2019-01-21T01:33:45.363Z,43.28
2019-01-21T01:35:46.795Z,38.80
2019-01-21T01:37:48.175Z,38.15
2019-01-21T01:39:49.621Z,42.90
2019-01-21T01:41:51.250Z,36.30
2019-01-21T01:43:52.633Z,39.85
2019-01-21T01:45:54.018Z,44.65
2019-01-21T01:47:59.370Z,40.85
2019-01-21T01:50:01.047Z,42.17
2019-01-21T01:52:02.436Z,45.92
2019-01-21T01:54:04.069Z,51.60
2019-01-21T01:56:05.476Z,39.08
2019-01-21T01:58:06.960Z,44.48
2019-01-21T02:00:13.703Z,35.17
2019-01-21T02:02:15.079Z,38.30
2019-01-21T02:04:16.427Z,39.92
2019-01-21T02:06:17.904Z,33.67
2019-01-21T02:08:19.322Z,40.83
2019-01-21T02:10:20.703Z,27.30
2019-01-21T02:12:22.669Z,33.40
2019-01-21T02:14:24.026Z,33.95
2019-01-21T02:16:25.415Z,37.60
2019-01-21T02:18:26.825Z,37.65
2019-01-21T02:20:28.187Z,33.95
2019-01-21T02:22:30.173Z,41.80
2019-01-21T02:24:34.485Z,37.58
2019-01-21T02:26:40.900Z,50.95
2019-01-21T02:28:50.770Z,50.45
2019-01-21T02:31:12.896Z,55.67
2019-01-21T02:33:22.714Z,52.17
2019-01-21T02:35:29.851Z,46.50
2019-01-21T02:37:42.956Z,55.40
2019-01-21T02:40:27.972Z,36.30
2019-01-21T02:43:01.536Z,38.75
2019-01-21T02:45:31.282Z,47.08
2019-01-21T02:47:38.654Z,48.17
2019-01-21T02:50:04.112Z,46.23
2019-01-21T02:52:25.570Z,47.98
2019-01-21T02:55:11.756Z,45.98
2019-01-21T02:57:47.422Z,39.63
2019-01-21T03:00:06.504Z,38.53
2019-01-21T03:02:29.197Z,36.45
2019-01-21T03:05:09.592Z,27.93
2019-01-21T03:07:34.026Z,35.73
2019-01-21T03:09:47.089Z,31.85
2019-01-21T03:12:00.184Z,33.92
2019-01-21T03:14:34.040Z,39.60
2019-01-21T03:17:14.239Z,38.08
2019-01-21T03:20:00.568Z,37.00
2019-01-21T03:22:22.594Z,39.13
2019-01-21T03:24:35.501Z,29.85
2019-01-21T03:26:48.164Z,32.65
2019-01-21T03:29:17.866Z,37.03
2019-01-21T03:31:47.690Z,33.45
2019-01-21T03:34:23.210Z,29.57
2019-01-21T03:37:07.862Z,32.28
2019-01-21T03:39:33.017Z,30.70
2019-01-21T03:41:43.097Z,31.02
2019-01-21T03:44:08.099Z,28.20
2019-01-21T03:46:35.998Z,31.75
2019-01-21T03:48:39.679Z,33.75
2019-01-21T03:50:52.491Z,32.10
2019-01-21T03:53:14.852Z,29.12
2019-01-21T03:55:17.142Z,29.80
2019-01-21T03:57:33.102Z,30.70
2019-01-21T03:59:52.122Z,31.35
2019-01-21T04:02:13.825Z,29.12
2019-01-21T04:04:52.178Z,45.48
2019-01-21T04:06:58.721Z,44.77
2019-01-21T04:09:24.260Z,43.63
2019-01-21T04:11:31.365Z,36.42
2019-01-21T04:13:47.238Z,34.18
2019-01-21T04:15:57.310Z,37.55
2019-01-21T04:18:24.850Z,39.63
2019-01-21T04:20:59.313Z,46.10
2019-01-21T04:23:24.235Z,41.65
2019-01-21T04:25:49.412Z,44.88
2019-01-21T04:28:11.044Z,45.52
2019-01-21T04:30:36.300Z,44.88
2019-01-21T04:32:49.239Z,40.83
2019-01-21T04:34:59.081Z,45.00
2019-01-21T04:37:24.303Z,45.20
2019-01-21T04:39:57.031Z,40.90
2019-01-21T04:42:19.012Z,51.98
2019-01-21T04:44:49.858Z,45.48
2019-01-21T04:47:05.654Z,44.45
2019-01-21T04:49:24.798Z,42.93
2019-01-21T04:51:46.699Z,33.28
2019-01-21T04:54:05.694Z,46.50
2019-01-21T04:56:33.865Z,28.85
2019-01-21T04:58:56.036Z,44.18
2019-01-21T05:01:14.425Z,49.65
2019-01-21T05:03:36.634Z,41.70
2019-01-21T05:05:43.760Z,47.67
2019-01-21T05:08:10.282Z,50.95
2019-01-21T05:10:29.494Z,39.20
2019-01-21T05:12:37.056Z,43.17
2019-01-21T05:14:53.029Z,44.35
2019-01-21T05:17:23.832Z,42.13
2019-01-21T05:19:52.101Z,35.70
2019-01-21T05:22:24.474Z,41.20
2019-01-21T05:24:46.663Z,41.40
2019-01-21T05:27:25.663Z,38.25
2019-01-21T05:29:54.033Z,57.45
2019-01-21T05:32:21.992Z,48.78
2019-01-21T05:34:41.178Z,62.95
2019-01-21T05:37:08.938Z,97.60
2019-01-21T05:39:32.731Z,61.77
2019-01-21T05:42:11.372Z,57.05
2019-01-21T05:44:45.709Z,54.20
2019-01-21T05:47:13.679Z,51.00
2019-01-21T05:49:33.130Z,51.77
2019-01-21T05:52:14.513Z,51.83
2019-01-21T05:54:48.699Z,54.95
2019-01-21T05:57:16.304Z,60.10
2019-01-21T05:59:55.154Z,58.23
2019-01-21T06:02:02.253Z,47.08
2019-01-21T06:04:21.071Z,57.25
2019-01-21T06:06:52.172Z,59.13
2019-01-21T06:09:29.500Z,58.70
2019-01-21T06:11:56.282Z,69.70
2019-01-21T06:14:12.223Z,55.80
2019-01-21T06:16:43.272Z,63.17
2019-01-21T06:18:59.022Z,56.55
2019-01-21T06:21:20.544Z,64.20
2019-01-21T06:23:30.671Z,63.48
2019-01-21T06:26:15.317Z,64.35
2019-01-21T06:28:37.299Z,52.30
2019-01-21T06:31:24.583Z,55.80
2019-01-21T06:33:34.267Z,57.62
2019-01-21T06:35:50.384Z,67.85
2019-01-21T06:38:00.241Z,52.90
2019-01-21T06:40:35.640Z,63.02
2019-01-21T06:42:51.605Z,66.10
2019-01-21T06:45:30.185Z,59.65
2019-01-21T06:48:05.841Z,59.00
2019-01-21T06:50:27.536Z,61.08
2019-01-21T06:52:46.028Z,61.80
2019-01-21T06:54:53.122Z,50.35
2019-01-21T06:57:11.596Z,54.03
2019-01-21T06:59:36.548Z,48.83
2019-01-21T07:01:49.565Z,69.42
2019-01-21T07:04:32.957Z,56.53
2019-01-21T07:06:45.942Z,49.60
2019-01-21T07:08:56.099Z,59.05
2019-01-21T07:11:11.513Z,49.38
2019-01-21T07:13:51.875Z,53.02
2019-01-21T07:16:27.318Z,53.25
2019-01-21T07:18:49.018Z,67.87
2019-01-21T07:21:12.793Z,60.12
2019-01-21T07:23:31.697Z,65.45
2019-01-21T07:25:45.070Z,67.05
2019-01-21T07:28:12.574Z,66.02
2019-01-21T07:30:34.493Z,63.60
2019-01-21T07:32:50.258Z,55.60
2019-01-21T07:35:12.209Z,44.77
2019-01-21T07:37:34.257Z,66.65
2019-01-21T07:39:58.709Z,55.58
2019-01-21T07:42:08.549Z,69.30
2019-01-21T07:44:39.062Z,78.65
2019-01-21T07:47:03.599Z,58.20
2019-01-21T07:49:36.248Z,55.80
2019-01-21T07:52:03.077Z,64.47
2019-01-21T07:54:39.758Z,56.90
2019-01-21T07:57:01.425Z,43.58
2019-01-21T07:59:44.408Z,43.50
2019-01-21T08:02:09.392Z,56.37
2019-01-21T08:04:36.202Z,51.58
2019-01-21T08:06:52.165Z,68.28
2019-01-21T08:09:08.138Z,52.10
2019-01-21T08:11:39.545Z,51.20
2019-01-21T08:14:09.341Z,61.83
2019-01-21T08:16:31.457Z,47.90
2019-01-21T08:19:08.159Z,66.72
2019-01-21T08:21:27.057Z,56.02
2019-01-21T08:23:49.117Z,58.40
2019-01-21T08:26:10.857Z,57.48
2019-01-21T08:28:42.307Z,51.55
2019-01-21T08:31:16.197Z,55.17
2019-01-21T08:33:35.631Z,47.95
2019-01-21T08:36:11.608Z,48.60
2019-01-21T08:38:47.083Z,48.05
2019-01-21T08:40:59.937Z,59.50
2019-01-21T08:43:30.785Z,62.10
2019-01-21T08:45:46.955Z,47.60
2019-01-21T08:47:54.027Z,53.00
2019-01-21T08:50:16.040Z,45.30
2019-01-21T08:52:23.156Z,49.00
2019-01-21T08:54:39.103Z,62.95
2019-01-21T08:57:11.799Z,50.45
2019-01-21T08:59:30.782Z,39.90
2019-01-21T09:02:10.543Z,45.25
2019-01-21T09:04:53.551Z,45.98
2019-01-21T09:07:18.817Z,47.43
2019-01-21T09:09:34.671Z,45.58
2019-01-21T09:12:26.999Z,43.40
2019-01-21T09:14:49.281Z,39.80
2019-01-21T09:17:32.657Z,52.38
2019-01-21T09:19:48.599Z,40.05
2019-01-21T09:22:16.618Z,55.58
2019-01-21T09:24:55.285Z,67.58
2019-01-21T09:27:13.933Z,55.35
2019-01-21T09:29:33.069Z,53.73
2019-01-21T09:31:48.674Z,43.80
2019-01-21T09:34:19.691Z,40.98
2019-01-21T09:36:44.274Z,46.58
2019-01-21T09:39:11.016Z,35.68
2019-01-21T09:41:32.980Z,46.15
2019-01-21T09:43:45.680Z,41.58
2019-01-21T09:46:04.601Z,52.53
2019-01-21T09:48:05.676Z,50.43
2019-01-21T09:50:07.095Z,45.80
2019-01-21T09:52:10.677Z,43.63
2019-01-21T09:54:12.252Z,39.85
2019-01-21T09:56:13.771Z,44.40
2019-01-21T09:58:15.473Z,45.80
2019-01-21T10:00:19.102Z,41.40
2019-01-21T10:02:29.013Z,48.83
2019-01-21T10:04:38.341Z,47.13
2019-01-21T10:06:44.543Z,45.08
2019-01-21T10:08:51.629Z,50.43
2019-01-21T10:11:16.334Z,49.70
2019-01-21T10:13:41.096Z,51.70
2019-01-21T10:16:00.329Z,58.70
2019-01-21T10:18:16.336Z,48.60
2019-01-21T10:20:28.982Z,54.48
2019-01-21T10:23:06.329Z,44.45
2019-01-21T10:25:16.203Z,52.78
2019-01-21T10:27:45.258Z,50.78
2019-01-21T10:30:23.967Z,53.20
2019-01-21T10:32:48.710Z,52.00
2019-01-21T10:35:33.370Z,50.00
2019-01-21T10:38:13.584Z,41.90
2019-01-21T10:40:32.835Z,49.42
2019-01-21T10:42:45.650Z,49.13
2019-01-21T10:45:07.961Z,46.37
2019-01-21T10:47:30.133Z,60.28
2019-01-21T10:53:06.026Z,58.52
2019-01-21T10:55:21.968Z,54.65
2019-01-21T10:57:46.480Z,52.95
2019-01-21T11:00:10.207Z,46.50
2019-01-21T11:02:40.731Z,46.65
2019-01-21T11:04:53.350Z,51.85
2019-01-21T11:07:12.277Z,48.52
2019-01-21T11:09:19.353Z,48.30
2019-01-21T11:11:41.364Z,46.40
2019-01-21T11:14:06.458Z,50.43
2019-01-21T11:17:07.471Z,54.38
2019-01-21T11:19:50.552Z,44.45
2019-01-21T11:22:33.584Z,51.65
2019-01-21T11:25:16.643Z,46.80
2019-01-21T11:27:59.669Z,39.13
2019-01-21T11:30:42.768Z,39.83
2019-01-21T11:33:43.782Z,43.10
2019-01-21T11:36:44.834Z,40.33
2019-01-21T11:39:45.829Z,38.48
2019-01-21T11:42:46.971Z,38.67
2019-01-21T11:45:30.007Z,43.80
2019-01-21T11:48:31.045Z,40.63
2019-01-21T11:51:14.084Z,49.77
2019-01-21T11:54:15.130Z,41.70
2019-01-21T11:56:58.150Z,49.88
2019-01-21T11:59:41.232Z,59.40
2019-01-21T12:05:29.601Z,36.20
2019-01-21T12:11:37.900Z,39.55
2019-01-21T12:14:20.934Z,46.83
2019-01-21T12:17:21.977Z,41.15
2019-01-21T12:20:23.025Z,40.73
2019-01-21T12:23:06.107Z,41.83
2019-01-21T12:25:49.123Z,41.85
2019-01-21T12:28:50.175Z,45.20
2019-01-21T12:31:51.163Z,40.43
2019-01-21T12:34:34.238Z,48.10
2019-01-21T12:37:17.382Z,39.25
2019-01-21T12:40:00.410Z,43.78
2019-01-21T12:42:43.492Z,37.85
2019-01-21T12:45:44.564Z,46.48
2019-01-21T12:48:27.595Z,37.10
2019-01-21T12:51:28.615Z,46.45
2019-01-21T12:54:29.605Z,51.63
2019-01-21T12:57:30.682Z,42.20
2019-01-21T13:00:13.720Z,46.30
2019-01-21T13:03:14.771Z,42.30
2019-01-21T13:06:15.861Z,44.38
2019-01-21T13:08:58.981Z,48.50
2019-01-21T13:11:42.086Z,44.08
2019-01-21T13:14:25.100Z,37.10
2019-01-21T13:17:08.202Z,39.27
2019-01-21T13:20:09.213Z,39.53
2019-01-21T13:22:52.287Z,38.63
2019-01-21T13:25:35.331Z,46.90
2019-01-21T13:28:16.933Z,49.45
2019-01-21T13:31:00.013Z,43.20
2019-01-21T13:33:43.073Z,43.38
2019-01-21T13:36:26.165Z,44.45
2019-01-21T13:39:09.237Z,51.40
2019-01-21T13:41:52.273Z,45.33
2019-01-21T13:44:29.522Z,38.67
2019-01-21T13:47:36.970Z,49.75
2019-01-21T13:50:02.850Z,41.02
2019-01-21T13:52:24.500Z,41.37
2019-01-21T13:54:34.312Z,48.98
2019-01-21T13:56:41.409Z,44.00
2019-01-21T13:59:09.619Z,49.08
2019-01-21T14:01:25.234Z,45.30
2019-01-21T14:03:44.188Z,43.28
2019-01-21T14:06:12.388Z,44.03
2019-01-21T14:09:00.702Z,42.10
2019-01-21T14:11:10.554Z,43.78
2019-01-21T14:13:29.402Z,43.20
2019-01-21T14:15:44.949Z,40.90
2019-01-21T14:18:14.225Z,49.93
2019-01-21T14:20:26.968Z,44.88
2019-01-21T14:22:43.176Z,53.42
2019-01-21T14:25:13.180Z,50.17
2019-01-21T14:27:50.601Z,49.13
2019-01-21T14:30:00.526Z,50.20
2019-01-21T14:32:24.758Z,48.63
2019-01-21T14:34:40.768Z,46.02
2019-01-21T14:36:57.046Z,46.53
2019-01-21T14:39:18.920Z,48.23
2019-01-21T14:41:44.165Z,42.17
2019-01-21T14:44:11.103Z,52.10
2019-01-21T14:46:30.265Z,47.95
2019-01-21T14:49:04.566Z,45.40
2019-01-21T14:51:36.997Z,49.30
2019-01-21T14:54:06.424Z,49.10
2019-01-21T14:56:34.688Z,47.23
2019-01-21T14:59:11.894Z,53.55
2019-01-21T15:01:49.538Z,45.63
2019-01-21T15:04:29.728Z,43.15
2019-01-21T15:06:48.766Z,40.38
2019-01-21T15:08:58.806Z,47.80
2019-01-21T15:11:27.132Z,46.60
2019-01-21T15:13:46.508Z,50.03
2019-01-21T15:15:59.367Z,54.10
2019-01-21T15:18:12.597Z,39.53
2019-01-21T15:20:19.697Z,45.70
2019-01-21T15:22:29.761Z,50.43
2019-01-21T15:24:48.490Z,47.75
2019-01-21T15:27:01.684Z,53.63
2019-01-21T15:29:39.158Z,51.18
2019-01-21T15:32:01.122Z,56.42
2019-01-21T15:34:45.871Z,51.23
2019-01-21T15:37:24.933Z,45.80
2019-01-21T15:40:14.763Z,41.75
2019-01-21T15:42:46.333Z,53.45
2019-01-21T15:45:05.691Z,57.43
2019-01-21T15:47:27.513Z,56.77
2019-01-21T15:49:37.626Z,57.23
2019-01-21T15:51:44.735Z,56.20
2019-01-21T15:53:51.799Z,58.38
2019-01-21T15:56:10.989Z,52.00
2019-01-21T15:58:39.592Z,64.40
2019-01-21T16:00:55.472Z,53.13
2019-01-21T16:03:31.273Z,54.53
2019-01-21T16:06:12.203Z,55.23
2019-01-21T16:08:17.550Z,56.28
2019-01-21T16:10:36.669Z,55.78
2019-01-21T16:13:04.865Z,56.50
2019-01-21T16:15:24.367Z,61.85
2019-01-21T16:17:42.760Z,56.68
2019-01-21T16:19:44.273Z,51.08
2019-01-21T16:22:31.756Z,64.65
2019-01-21T16:24:53.911Z,56.63
2019-01-21T16:27:07.053Z,57.30
2019-01-21T16:29:14.119Z,53.78
2019-01-21T16:31:22.266Z,59.42
2019-01-21T16:33:32.479Z,62.13
2019-01-21T16:35:45.479Z,55.38
2019-01-21T16:38:10.968Z,57.27
2019-01-21T16:40:27.070Z,54.23
2019-01-21T16:42:28.107Z,57.95
2019-01-21T16:44:29.539Z,64.53
2019-01-21T16:46:30.890Z,62.75
2019-01-21T16:48:32.252Z,65.65
2019-01-21T16:50:33.663Z,58.85
2019-01-21T16:52:35.012Z,58.38
2019-01-21T16:54:36.383Z,61.40
2019-01-21T16:56:37.808Z,63.73
2019-01-21T16:58:39.176Z,59.20
2019-01-21T17:00:40.525Z,63.10
2019-01-21T17:02:41.914Z,60.05
2019-01-21T17:04:43.261Z,62.20
2019-01-21T17:06:44.603Z,65.57
2019-01-21T17:08:46.150Z,63.55
2019-01-21T17:10:47.613Z,67.35
2019-01-21T17:12:48.990Z,73.52
2019-01-21T17:14:57.224Z,58.80
2019-01-21T17:16:53.812Z,62.95
2019-01-21T17:18:55.175Z,56.37
2019-01-21T17:20:56.614Z,57.40
2019-01-21T17:22:58.056Z,64.70
2019-01-21T17:24:59.394Z,51.70
2019-01-21T17:27:00.791Z,59.70
2019-01-21T17:29:02.248Z,71.42
2019-01-21T17:31:03.756Z,59.73
2019-01-21T17:33:05.477Z,66.22
2019-01-21T17:35:09.428Z,64.05
2019-01-21T17:37:10.874Z,65.80
2019-01-21T17:39:12.365Z,63.60
2019-01-21T17:41:14.173Z,63.50
2019-01-21T17:43:15.522Z,74.32
2019-01-21T17:45:18.801Z,62.60
2019-01-21T17:47:20.158Z,69.22
2019-01-21T17:49:21.507Z,76.05
2019-01-21T17:51:22.998Z,67.95
2019-01-21T17:53:24.335Z,86.40
2019-01-21T17:55:25.800Z,80.12
2019-01-21T17:57:27.204Z,81.72
2019-01-21T17:59:28.554Z,68.67
2019-01-21T18:01:29.888Z,87.92
2019-01-21T18:03:31.321Z,70.45
2019-01-21T18:05:32.759Z,78.12
2019-01-21T18:07:34.127Z,81.97
2019-01-21T18:09:35.542Z,85.32
2019-01-21T18:11:41.259Z,85.65
2019-01-21T18:13:40.158Z,84.15
2019-01-21T18:15:41.566Z,81.87
2019-01-21T18:17:42.915Z,70.37
2019-01-21T18:19:44.295Z,71.87
2019-01-21T18:21:46.834Z,82.53
2019-01-21T18:23:48.224Z,72.17
2019-01-21T18:25:49.578Z,73.45
2019-01-21T18:27:51.049Z,74.05
2019-01-21T18:29:52.404Z,66.70
2019-01-21T18:31:53.758Z,72.70
2019-01-21T18:33:55.184Z,73.67
2019-01-21T18:35:56.529Z,63.35
2019-01-21T18:37:57.940Z,78.65
2019-01-21T18:39:59.469Z,71.30
2019-01-21T18:42:00.932Z,71.07
2019-01-21T18:44:02.294Z,73.50
2019-01-21T18:46:03.821Z,70.15
2019-01-21T18:48:05.384Z,89.20
2019-01-21T18:50:09.649Z,74.97
2019-01-21T18:52:11.555Z,82.95
2019-01-21T18:54:12.917Z,70.22
2019-01-21T18:56:14.275Z,77.97
2019-01-21T18:58:15.672Z,72.45
2019-01-21T19:00:21.836Z,85.77
2019-01-21T19:02:23.196Z,83.87
2019-01-21T19:04:24.619Z,72.97
2019-01-21T19:06:25.973Z,72.55
2019-01-21T19:08:27.321Z,65.20
2019-01-21T19:10:28.739Z,68.67
2019-01-21T19:12:30.153Z,64.92
2019-01-21T19:14:31.581Z,68.33
2019-01-21T19:16:32.930Z,64.97
2019-01-21T19:18:34.383Z,79.58
2019-01-21T19:20:35.735Z,82.90
2019-01-21T19:22:37.107Z,73.57
2019-01-21T19:24:38.572Z,79.45
2019-01-21T19:26:40.002Z,80.77
2019-01-21T19:28:41.420Z,72.53
2019-01-21T19:30:42.804Z,83.15
2019-01-21T19:32:44.304Z,69.22
2019-01-21T19:34:45.729Z,86.35
2019-01-21T19:36:47.089Z,82.15
2019-01-21T19:38:48.688Z,82.42
2019-01-21T19:40:50.233Z,85.70
2019-01-21T19:42:51.586Z,79.25
2019-01-21T19:44:52.929Z,74.45
2019-01-21T19:46:54.583Z,75.80
2019-01-21T19:48:55.926Z,72.80
2019-01-21T19:50:57.297Z,79.92
2019-01-21T19:52:58.723Z,78.72
2019-01-21T19:55:00.153Z,76.05
2019-01-21T19:57:01.555Z,75.85
2019-01-21T19:59:03.082Z,75.47
2019-01-21T20:01:04.427Z,73.35
2019-01-21T20:03:05.780Z,69.20
2019-01-21T20:05:08.895Z,78.83
2019-01-21T20:07:10.258Z,83.82
2019-01-21T20:09:11.602Z,76.37
2019-01-21T20:11:13.021Z,73.20
2019-01-21T20:13:14.373Z,82.15
2019-01-21T20:15:17.158Z,76.80
2019-01-21T20:17:18.580Z,76.22
2019-01-21T20:19:19.940Z,83.52
2019-01-21T20:21:21.320Z,73.65
2019-01-21T20:23:22.729Z,72.80
2019-01-21T20:25:24.388Z,81.95
2019-01-21T20:27:25.749Z,70.17
2019-01-21T20:29:27.161Z,72.60
2019-01-21T20:31:28.496Z,80.47
2019-01-21T20:33:31.031Z,79.32
2019-01-21T20:35:32.377Z,73.85
2019-01-21T20:37:33.721Z,78.90
2019-01-21T20:39:35.184Z,74.87
2019-01-21T20:41:36.645Z,80.85
2019-01-21T20:43:38.005Z,76.62
2019-01-21T20:45:39.360Z,75.97
2019-01-21T20:47:41.156Z,73.70
2019-01-21T20:49:42.518Z,69.65
2019-01-21T20:51:43.852Z,76.47
2019-01-21T20:53:45.394Z,74.87
2019-01-21T20:55:46.741Z,73.55
2019-01-21T20:57:48.195Z,74.87
2019-01-21T20:59:49.616Z,73.60
2019-01-21T21:01:51.464Z,75.12
2019-01-21T21:03:52.841Z,79.45
2019-01-21T21:05:54.290Z,84.55
2019-01-21T21:07:55.668Z,86.53
2019-01-21T21:09:57.000Z,95.30
2019-01-21T21:11:58.402Z,82.82
2019-01-21T21:13:59.734Z,78.05
2019-01-21T21:16:01.072Z,82.80
2019-01-21T21:18:02.784Z,75.95
2019-01-21T21:20:08.858Z,84.37
2019-01-21T21:22:10.194Z,79.80
2019-01-21T21:24:11.598Z,90.25
2019-01-21T21:26:12.966Z,75.25
2019-01-21T21:28:14.366Z,77.53
2019-01-21T21:30:28.268Z,82.45
2019-01-21T21:32:29.687Z,78.28
2019-01-21T21:34:31.029Z,84.28
2019-01-21T21:36:32.393Z,78.50
2019-01-21T21:38:33.802Z,94.28
2019-01-21T21:40:35.611Z,81.82
2019-01-21T21:42:37.099Z,73.62
2019-01-21T21:44:38.552Z,84.28
2019-01-21T21:46:39.928Z,88.22
2019-01-21T21:48:41.297Z,75.42
2019-01-21T21:50:42.697Z,88.50
2019-01-21T21:52:44.040Z,88.90
2019-01-21T21:54:45.421Z,72.75
2019-01-21T21:56:47.136Z,83.10
2019-01-21T21:58:48.684Z,86.15
2019-01-21T22:00:50.028Z,79.90
2019-01-21T22:02:51.524Z,98.12
2019-01-21T22:04:53.057Z,92.62
2019-01-21T22:06:54.420Z,98.15
2019-01-21T22:08:56.288Z,82.65
2019-01-21T22:10:57.695Z,90.90
2019-01-21T22:12:59.063Z,87.05
2019-01-21T22:15:00.416Z,81.12
2019-01-21T22:17:01.801Z,90.12
2019-01-21T22:19:03.254Z,87.10
2019-01-21T22:21:04.712Z,80.62
2019-01-21T22:23:06.108Z,84.77
2019-01-21T22:25:08.264Z,89.35
2019-01-21T22:27:10.123Z,90.75
2019-01-21T22:29:11.541Z,75.80
2019-01-21T22:31:12.990Z,84.10
2019-01-21T22:33:14.355Z,82.10
2019-01-21T22:35:15.772Z,95.32
2019-01-21T22:37:17.537Z,91.75
2019-01-21T22:39:18.920Z,84.03
2019-01-21T22:41:20.441Z,88.03
2019-01-21T22:43:21.802Z,82.35
2019-01-21T22:45:23.247Z,96.82
2019-01-21T22:47:24.789Z,77.37
2019-01-21T22:49:26.139Z,84.85
2019-01-21T22:51:27.647Z,80.38
2019-01-21T22:53:29.055Z,86.42
2019-01-21T22:55:30.397Z,87.15
2019-01-21T22:57:31.747Z,94.95
2019-01-21T22:59:33.136Z,74.00
2019-01-21T23:01:37.796Z,80.50
2019-01-21T23:03:39.298Z,84.37
2019-01-21T23:05:40.967Z,79.55
2019-01-21T23:07:42.316Z,71.40
2019-01-21T23:09:43.877Z,73.00
2019-01-21T23:11:45.239Z,85.70
2019-01-21T23:13:46.577Z,75.03
2019-01-21T23:15:48.384Z,85.95
2019-01-21T23:17:49.744Z,88.58
2019-01-21T23:19:52.201Z,72.05
2019-01-21T23:21:53.627Z,66.87
2019-01-21T23:23:54.988Z,88.55
2019-01-21T23:25:56.340Z,87.02
2019-01-21T23:27:57.745Z,86.17
2019-01-21T23:29:59.082Z,85.32
2019-01-21T23:32:00.461Z,96.37
2019-01-21T23:34:02.653Z,92.10
2019-01-21T23:36:04.115Z,94.85
2019-01-21T23:38:05.453Z,84.58
2019-01-21T23:40:09.460Z,83.15
2019-01-21T23:42:10.881Z,98.03
2019-01-21T23:44:12.700Z,91.95
2019-01-21T23:46:14.040Z,81.47
2019-01-21T23:48:15.391Z,76.95
2019-01-21T23:50:17.111Z,72.37
2019-01-21T23:52:18.444Z,73.02
2019-01-21T23:54:19.805Z,89.72
2019-01-21T23:56:21.549Z,75.47
2019-01-21T23:58:22.905Z,73.83
